sensor_id;sensor_type;location;lat;lon;timestamp;P1;durP1;ratioP1;P2;durP2;ratioP2
14118;SDS011;7138;49.246;9.100;2023-04-24T00:00:28;2.40;;;1.05;;
14118;SDS011;7138;49.246;9.100;2023-04-24T00:02:54;3.95;;;0.70;;
14118;SDS011;7138;49.246;9.100;2023-04-24T00:05:22;3.67;;;0.80;;
14118;SDS011;7138;49.246;9.100;2023-04-24T00:07:48;3.83;;;0.98;;
14118;SDS011;7138;49.246;9.100;2023-04-24T00:10:17;3.05;;;0.90;;
14118;SDS011;7138;49.246;9.100;2023-04-24T00:12:45;5.38;;;0.80;;
14118;SDS011;7138;49.246;9.100;2023-04-24T00:15:11;4.82;;;0.80;;
14118;SDS011;7138;49.246;9.100;2023-04-24T00:17:37;2.13;;;0.80;;
14118;SDS011;7138;49.246;9.100;2023-04-24T00:20:03;4.82;;;1.00;;
14118;SDS011;7138;49.246;9.100;2023-04-24T00:22:32;3.38;;;1.00;;
14118;SDS011;7138;49.246;9.100;2023-04-24T00:24:58;5.28;;;0.90;;
14118;SDS011;7138;49.246;9.100;2023-04-24T00:27:24;3.58;;;0.68;;
14118;SDS011;7138;49.246;9.100;2023-04-24T00:29:51;3.00;;;0.90;;
14118;SDS011;7138;49.246;9.100;2023-04-24T00:32:20;2.92;;;0.90;;
14118;SDS011;7138;49.246;9.100;2023-04-24T00:34:45;3.38;;;0.70;;
14118;SDS011;7138;49.246;9.100;2023-04-24T00:37:11;3.47;;;0.70;;
14118;SDS011;7138;49.246;9.100;2023-04-24T00:39:37;1.48;;;0.60;;
14118;SDS011;7138;49.246;9.100;2023-04-24T00:42:04;3.00;;;0.70;;
14118;SDS011;7138;49.246;9.100;2023-04-24T00:44:31;2.22;;;0.68;;
14118;SDS011;7138;49.246;9.100;2023-04-24T00:46:59;2.88;;;0.70;;
14118;SDS011;7138;49.246;9.100;2023-04-24T00:49:26;2.50;;;0.70;;
14118;SDS011;7138;49.246;9.100;2023-04-24T00:51:52;2.25;;;0.60;;
14118;SDS011;7138;49.246;9.100;2023-04-24T00:54:18;1.65;;;0.55;;
14118;SDS011;7138;49.246;9.100;2023-04-24T00:56:45;1.52;;;0.47;;
14118;SDS011;7138;49.246;9.100;2023-04-24T00:59:11;3.40;;;0.70;;
14118;SDS011;7138;49.246;9.100;2023-04-24T01:01:38;3.15;;;0.70;;
14118;SDS011;7138;49.246;9.100;2023-04-24T01:04:09;1.98;;;0.50;;
14118;SDS011;7138;49.246;9.100;2023-04-24T01:06:38;1.90;;;0.77;;
14118;SDS011;7138;49.246;9.100;2023-04-24T01:09:05;5.22;;;0.80;;
14118;SDS011;7138;49.246;9.100;2023-04-24T01:11:35;2.00;;;0.68;;
14118;SDS011;7138;49.246;9.100;2023-04-24T01:14:02;2.78;;;0.90;;
14118;SDS011;7138;49.246;9.100;2023-04-24T01:16:28;2.65;;;0.63;;
14118;SDS011;7138;49.246;9.100;2023-04-24T01:18:54;3.55;;;0.82;;
14118;SDS011;7138;49.246;9.100;2023-04-24T01:21:22;3.42;;;1.02;;
14118;SDS011;7138;49.246;9.100;2023-04-24T01:23:56;2.80;;;0.80;;
14118;SDS011;7138;49.246;9.100;2023-04-24T01:26:22;3.55;;;0.77;;
14118;SDS011;7138;49.246;9.100;2023-04-24T01:28:50;2.40;;;0.73;;
14118;SDS011;7138;49.246;9.100;2023-04-24T01:31:17;3.00;;;0.70;;
14118;SDS011;7138;49.246;9.100;2023-04-24T01:33:43;3.90;;;0.73;;
14118;SDS011;7138;49.246;9.100;2023-04-24T01:36:09;1.90;;;0.70;;
14118;SDS011;7138;49.246;9.100;2023-04-24T01:38:37;2.55;;;0.82;;
14118;SDS011;7138;49.246;9.100;2023-04-24T01:41:04;1.92;;;0.70;;
14118;SDS011;7138;49.246;9.100;2023-04-24T01:43:30;3.83;;;1.05;;
14118;SDS011;7138;49.246;9.100;2023-04-24T01:45:56;2.03;;;0.50;;
14118;SDS011;7138;49.246;9.100;2023-04-24T01:48:22;2.50;;;0.70;;
14118;SDS011;7138;49.246;9.100;2023-04-24T01:50:48;2.90;;;0.60;;
14118;SDS011;7138;49.246;9.100;2023-04-24T01:53:14;2.53;;;0.60;;
14118;SDS011;7138;49.246;9.100;2023-04-24T01:55:40;2.75;;;0.60;;
14118;SDS011;7138;49.246;9.100;2023-04-24T01:58:08;3.55;;;0.60;;
14118;SDS011;7138;49.246;9.100;2023-04-24T02:00:34;2.53;;;0.60;;
14118;SDS011;7138;49.246;9.100;2023-04-24T02:03:00;2.60;;;0.70;;
14118;SDS011;7138;49.246;9.100;2023-04-24T02:05:26;3.10;;;0.50;;
14118;SDS011;7138;49.246;9.100;2023-04-24T02:07:52;1.90;;;0.70;;
14118;SDS011;7138;49.246;9.100;2023-04-24T02:10:18;2.95;;;0.70;;
14118;SDS011;7138;49.246;9.100;2023-04-24T02:12:44;4.38;;;0.65;;
14118;SDS011;7138;49.246;9.100;2023-04-24T02:15:12;2.95;;;0.68;;
14118;SDS011;7138;49.246;9.100;2023-04-24T02:17:38;5.28;;;0.60;;
14118;SDS011;7138;49.246;9.100;2023-04-24T02:20:04;3.15;;;0.50;;
14118;SDS011;7138;49.246;9.100;2023-04-24T02:22:31;2.40;;;0.60;;
14118;SDS011;7138;49.246;9.100;2023-04-24T02:24:57;2.58;;;0.60;;
14118;SDS011;7138;49.246;9.100;2023-04-24T02:27:23;3.63;;;0.70;;
14118;SDS011;7138;49.246;9.100;2023-04-24T02:29:49;1.95;;;0.47;;
14118;SDS011;7138;49.246;9.100;2023-04-24T02:32:19;1.45;;;0.43;;
14118;SDS011;7138;49.246;9.100;2023-04-24T02:34:45;2.25;;;0.70;;
14118;SDS011;7138;49.246;9.100;2023-04-24T02:37:10;4.60;;;0.68;;
14118;SDS011;7138;49.246;9.100;2023-04-24T02:39:36;4.25;;;0.88;;
14118;SDS011;7138;49.246;9.100;2023-04-24T02:42:02;3.55;;;0.77;;
14118;SDS011;7138;49.246;9.100;2023-04-24T02:44:28;2.33;;;0.70;;
14118;SDS011;7138;49.246;9.100;2023-04-24T02:46:54;1.88;;;0.65;;
14118;SDS011;7138;49.246;9.100;2023-04-24T02:49:21;3.15;;;0.70;;
14118;SDS011;7138;49.246;9.100;2023-04-24T02:51:47;3.80;;;0.75;;
14118;SDS011;7138;49.246;9.100;2023-04-24T02:54:13;2.40;;;0.60;;
14118;SDS011;7138;49.246;9.100;2023-04-24T02:56:39;2.45;;;0.68;;
14118;SDS011;7138;49.246;9.100;2023-04-24T02:59:04;3.08;;;0.68;;
14118;SDS011;7138;49.246;9.100;2023-04-24T03:01:30;2.25;;;0.50;;
14118;SDS011;7138;49.246;9.100;2023-04-24T03:03:56;2.90;;;0.70;;
14118;SDS011;7138;49.246;9.100;2023-04-24T03:06:24;2.47;;;0.65;;
14118;SDS011;7138;49.246;9.100;2023-04-24T03:08:51;3.95;;;0.65;;
14118;SDS011;7138;49.246;9.100;2023-04-24T03:11:18;2.25;;;0.60;;
14118;SDS011;7138;49.246;9.100;2023-04-24T03:13:44;1.95;;;0.70;;
14118;SDS011;7138;49.246;9.100;2023-04-24T03:16:10;4.15;;;0.85;;
14118;SDS011;7138;49.246;9.100;2023-04-24T03:18:35;3.13;;;0.65;;
14118;SDS011;7138;49.246;9.100;2023-04-24T03:21:01;4.30;;;0.90;;
14118;SDS011;7138;49.246;9.100;2023-04-24T03:23:29;2.70;;;0.82;;
14118;SDS011;7138;49.246;9.100;2023-04-24T03:25:55;1.90;;;0.70;;
14118;SDS011;7138;49.246;9.100;2023-04-24T03:28:21;4.50;;;0.77;;
14118;SDS011;7138;49.246;9.100;2023-04-24T03:30:47;2.53;;;0.63;;
14118;SDS011;7138;49.246;9.100;2023-04-24T03:33:13;1.90;;;0.60;;
14118;SDS011;7138;49.246;9.100;2023-04-24T03:35:39;1.92;;;0.70;;
14118;SDS011;7138;49.246;9.100;2023-04-24T03:38:04;2.45;;;0.68;;
14118;SDS011;7138;49.246;9.100;2023-04-24T03:40:32;4.63;;;0.68;;
14118;SDS011;7138;49.246;9.100;2023-04-24T03:42:58;2.83;;;0.70;;
14118;SDS011;7138;49.246;9.100;2023-04-24T03:45:24;4.90;;;1.20;;
14118;SDS011;7138;49.246;9.100;2023-04-24T03:47:50;4.38;;;0.98;;
14118;SDS011;7138;49.246;9.100;2023-04-24T03:50:16;3.00;;;0.85;;
14118;SDS011;7138;49.246;9.100;2023-04-24T03:52:42;4.65;;;0.88;;
14118;SDS011;7138;49.246;9.100;2023-04-24T03:55:08;2.88;;;0.60;;
14118;SDS011;7138;49.246;9.100;2023-04-24T03:57:39;3.03;;;0.70;;
14118;SDS011;7138;49.246;9.100;2023-04-24T04:00:06;3.80;;;0.90;;
14118;SDS011;7138;49.246;9.100;2023-04-24T04:02:33;4.57;;;0.95;;
14118;SDS011;7138;49.246;9.100;2023-04-24T04:04:59;1.73;;;0.60;;
14118;SDS011;7138;49.246;9.100;2023-04-24T04:07:25;4.45;;;0.93;;
14118;SDS011;7138;49.246;9.100;2023-04-24T04:09:51;3.25;;;0.60;;
14118;SDS011;7138;49.246;9.100;2023-04-24T04:12:17;2.83;;;0.68;;
14118;SDS011;7138;49.246;9.100;2023-04-24T04:14:44;2.72;;;0.60;;
14118;SDS011;7138;49.246;9.100;2023-04-24T04:17:10;3.00;;;0.82;;
14118;SDS011;7138;49.246;9.100;2023-04-24T04:19:36;2.47;;;0.70;;
14118;SDS011;7138;49.246;9.100;2023-04-24T04:22:02;1.80;;;0.80;;
14118;SDS011;7138;49.246;9.100;2023-04-24T04:24:28;4.72;;;0.88;;
14118;SDS011;7138;49.246;9.100;2023-04-24T04:26:54;3.30;;;1.13;;
14118;SDS011;7138;49.246;9.100;2023-04-24T04:29:21;2.72;;;1.10;;
14118;SDS011;7138;49.246;9.100;2023-04-24T04:31:50;3.40;;;1.00;;
14118;SDS011;7138;49.246;9.100;2023-04-24T04:34:16;3.53;;;1.02;;
14118;SDS011;7138;49.246;9.100;2023-04-24T04:36:41;2.50;;;0.98;;
14118;SDS011;7138;49.246;9.100;2023-04-24T04:39:08;3.75;;;1.42;;
14118;SDS011;7138;49.246;9.100;2023-04-24T04:41:34;3.65;;;1.10;;
14118;SDS011;7138;49.246;9.100;2023-04-24T04:44:00;3.40;;;1.23;;
14118;SDS011;7138;49.246;9.100;2023-04-24T04:46:26;3.45;;;1.45;;
14118;SDS011;7138;49.246;9.100;2023-04-24T04:48:53;2.88;;;1.27;;
14118;SDS011;7138;49.246;9.100;2023-04-24T04:51:19;3.00;;;1.30;;
14118;SDS011;7138;49.246;9.100;2023-04-24T04:53:45;2.92;;;1.27;;
14118;SDS011;7138;49.246;9.100;2023-04-24T04:56:11;3.75;;;1.50;;
14118;SDS011;7138;49.246;9.100;2023-04-24T04:58:37;3.40;;;1.67;;
14118;SDS011;7138;49.246;9.100;2023-04-24T05:01:03;4.50;;;1.90;;
14118;SDS011;7138;49.246;9.100;2023-04-24T05:03:29;4.22;;;1.70;;
14118;SDS011;7138;49.246;9.100;2023-04-24T05:05:57;5.22;;;1.88;;
14118;SDS011;7138;49.246;9.100;2023-04-24T05:08:23;4.05;;;1.90;;
14118;SDS011;7138;49.246;9.100;2023-04-24T05:10:49;3.85;;;2.20;;
14118;SDS011;7138;49.246;9.100;2023-04-24T05:13:14;7.47;;;2.38;;
14118;SDS011;7138;49.246;9.100;2023-04-24T05:15:40;6.20;;;1.90;;
14118;SDS011;7138;49.246;9.100;2023-04-24T05:18:06;4.38;;;2.20;;
14118;SDS011;7138;49.246;9.100;2023-04-24T05:20:32;4.22;;;2.42;;
14118;SDS011;7138;49.246;9.100;2023-04-24T05:22:59;5.07;;;2.33;;
14118;SDS011;7138;49.246;9.100;2023-04-24T05:25:25;6.55;;;2.72;;
14118;SDS011;7138;49.246;9.100;2023-04-24T05:27:51;4.82;;;2.92;;
14118;SDS011;7138;49.246;9.100;2023-04-24T05:30:18;4.45;;;2.65;;
14118;SDS011;7138;49.246;9.100;2023-04-24T05:32:44;4.95;;;2.45;;
14118;SDS011;7138;49.246;9.100;2023-04-24T05:35:10;7.13;;;2.60;;
14118;SDS011;7138;49.246;9.100;2023-04-24T05:37:36;5.63;;;2.40;;
14118;SDS011;7138;49.246;9.100;2023-04-24T05:40:04;3.78;;;1.95;;
14118;SDS011;7138;49.246;9.100;2023-04-24T05:42:31;4.97;;;2.10;;
14118;SDS011;7138;49.246;9.100;2023-04-24T05:44:57;3.78;;;1.80;;
14118;SDS011;7138;49.246;9.100;2023-04-24T05:47:23;4.10;;;1.98;;
14118;SDS011;7138;49.246;9.100;2023-04-24T05:49:49;5.35;;;1.58;;
14118;SDS011;7138;49.246;9.100;2023-04-24T05:52:15;3.55;;;1.60;;
14118;SDS011;7138;49.246;9.100;2023-04-24T05:54:40;4.22;;;1.80;;
14118;SDS011;7138;49.246;9.100;2023-04-24T05:57:07;4.00;;;1.80;;
14118;SDS011;7138;49.246;9.100;2023-04-24T05:59:33;3.53;;;1.70;;
14118;SDS011;7138;49.246;9.100;2023-04-24T06:02:01;3.85;;;1.90;;
14118;SDS011;7138;49.246;9.100;2023-04-24T06:04:27;4.13;;;1.90;;
14118;SDS011;7138;49.246;9.100;2023-04-24T06:06:53;3.10;;;1.63;;
14118;SDS011;7138;49.246;9.100;2023-04-24T06:09:21;3.70;;;2.00;;
14118;SDS011;7138;49.246;9.100;2023-04-24T06:11:47;5.88;;;2.22;;
14118;SDS011;7138;49.246;9.100;2023-04-24T06:14:16;4.13;;;1.85;;
14118;SDS011;7138;49.246;9.100;2023-04-24T06:16:42;6.05;;;2.30;;
14118;SDS011;7138;49.246;9.100;2023-04-24T06:19:08;3.55;;;1.98;;
14118;SDS011;7138;49.246;9.100;2023-04-24T06:21:33;5.85;;;1.85;;
14118;SDS011;7138;49.246;9.100;2023-04-24T06:23:59;4.65;;;1.90;;
14118;SDS011;7138;49.246;9.100;2023-04-24T06:26:25;5.60;;;1.95;;
14118;SDS011;7138;49.246;9.100;2023-04-24T06:28:51;3.05;;;1.70;;
14118;SDS011;7138;49.246;9.100;2023-04-24T06:31:20;4.57;;;2.05;;
14118;SDS011;7138;49.246;9.100;2023-04-24T06:33:46;4.95;;;2.00;;
14118;SDS011;7138;49.246;9.100;2023-04-24T06:36:13;4.28;;;2.28;;
14118;SDS011;7138;49.246;9.100;2023-04-24T06:38:39;6.15;;;2.80;;
14118;SDS011;7138;49.246;9.100;2023-04-24T06:41:05;3.75;;;2.10;;
14118;SDS011;7138;49.246;9.100;2023-04-24T06:43:30;3.65;;;2.10;;
14118;SDS011;7138;49.246;9.100;2023-04-24T06:45:56;4.72;;;2.40;;
14118;SDS011;7138;49.246;9.100;2023-04-24T06:48:24;5.80;;;2.30;;
14118;SDS011;7138;49.246;9.100;2023-04-24T06:50:50;4.32;;;2.30;;
14118;SDS011;7138;49.246;9.100;2023-04-24T06:53:16;4.55;;;2.63;;
14118;SDS011;7138;49.246;9.100;2023-04-24T06:55:42;4.97;;;2.30;;
14118;SDS011;7138;49.246;9.100;2023-04-24T06:58:11;5.45;;;2.40;;
14118;SDS011;7138;49.246;9.100;2023-04-24T07:00:37;5.85;;;2.10;;
14118;SDS011;7138;49.246;9.100;2023-04-24T07:03:03;4.18;;;2.70;;
14118;SDS011;7138;49.246;9.100;2023-04-24T07:05:33;4.57;;;2.08;;
14118;SDS011;7138;49.246;9.100;2023-04-24T07:08:00;5.35;;;2.20;;
14118;SDS011;7138;49.246;9.100;2023-04-24T07:10:26;4.75;;;2.10;;
14118;SDS011;7138;49.246;9.100;2023-04-24T07:12:53;4.72;;;2.10;;
14118;SDS011;7138;49.246;9.100;2023-04-24T07:15:19;4.28;;;2.30;;
14118;SDS011;7138;49.246;9.100;2023-04-24T07:17:45;4.53;;;1.70;;
14118;SDS011;7138;49.246;9.100;2023-04-24T07:20:11;4.60;;;1.63;;
14118;SDS011;7138;49.246;9.100;2023-04-24T07:22:40;3.88;;;1.92;;
14118;SDS011;7138;49.246;9.100;2023-04-24T07:25:06;4.80;;;1.90;;
14118;SDS011;7138;49.246;9.100;2023-04-24T07:27:34;5.05;;;1.67;;
14118;SDS011;7138;49.246;9.100;2023-04-24T07:30:01;5.03;;;1.77;;
14118;SDS011;7138;49.246;9.100;2023-04-24T07:32:27;6.65;;;1.63;;
14118;SDS011;7138;49.246;9.100;2023-04-24T07:34:53;5.38;;;1.60;;
14118;SDS011;7138;49.246;9.100;2023-04-24T07:37:18;3.75;;;1.65;;
14118;SDS011;7138;49.246;9.100;2023-04-24T07:39:49;3.15;;;1.55;;
14118;SDS011;7138;49.246;9.100;2023-04-24T07:42:15;2.97;;;1.52;;
14118;SDS011;7138;49.246;9.100;2023-04-24T07:44:41;3.85;;;1.67;;
14118;SDS011;7138;49.246;9.100;2023-04-24T07:47:07;2.80;;;1.40;;
14118;SDS011;7138;49.246;9.100;2023-04-24T07:49:33;3.15;;;1.63;;
14118;SDS011;7138;49.246;9.100;2023-04-24T07:51:59;4.90;;;1.42;;
14118;SDS011;7138;49.246;9.100;2023-04-24T07:54:27;2.65;;;1.42;;
14118;SDS011;7138;49.246;9.100;2023-04-24T07:56:55;2.65;;;1.23;;
14118;SDS011;7138;49.246;9.100;2023-04-24T07:59:20;3.47;;;1.40;;
14118;SDS011;7138;49.246;9.100;2023-04-24T08:01:46;3.88;;;1.50;;
14118;SDS011;7138;49.246;9.100;2023-04-24T08:04:12;3.78;;;1.40;;
14118;SDS011;7138;49.246;9.100;2023-04-24T08:06:38;3.33;;;1.33;;
14118;SDS011;7138;49.246;9.100;2023-04-24T08:09:04;2.75;;;1.35;;
14118;SDS011;7138;49.246;9.100;2023-04-24T08:11:30;4.10;;;1.50;;
14118;SDS011;7138;49.246;9.100;2023-04-24T08:13:58;5.20;;;1.48;;
14118;SDS011;7138;49.246;9.100;2023-04-24T08:16:23;4.38;;;1.40;;
14118;SDS011;7138;49.246;9.100;2023-04-24T08:18:49;4.15;;;1.40;;
14118;SDS011;7138;49.246;9.100;2023-04-24T08:21:15;2.83;;;1.33;;
14118;SDS011;7138;49.246;9.100;2023-04-24T08:23:45;3.45;;;1.20;;
14118;SDS011;7138;49.246;9.100;2023-04-24T08:26:11;3.45;;;1.30;;
14118;SDS011;7138;49.246;9.100;2023-04-24T08:28:37;2.80;;;1.30;;
14118;SDS011;7138;49.246;9.100;2023-04-24T08:31:05;3.75;;;1.23;;
14118;SDS011;7138;49.246;9.100;2023-04-24T08:33:31;6.15;;;1.33;;
14118;SDS011;7138;49.246;9.100;2023-04-24T08:35:59;2.80;;;0.98;;
14118;SDS011;7138;49.246;9.100;2023-04-24T08:38:25;2.80;;;1.17;;
14118;SDS011;7138;49.246;9.100;2023-04-24T08:40:51;3.72;;;1.25;;
14118;SDS011;7138;49.246;9.100;2023-04-24T08:43:18;2.90;;;1.13;;
14118;SDS011;7138;49.246;9.100;2023-04-24T08:45:46;2.40;;;1.10;;
14118;SDS011;7138;49.246;9.100;2023-04-24T08:48:13;3.42;;;1.25;;
14118;SDS011;7138;49.246;9.100;2023-04-24T08:50:40;3.15;;;1.10;;
14118;SDS011;7138;49.246;9.100;2023-04-24T08:53:09;3.20;;;1.48;;
14118;SDS011;7138;49.246;9.100;2023-04-24T08:55:36;3.05;;;1.20;;
14118;SDS011;7138;49.246;9.100;2023-04-24T08:58:03;4.00;;;1.27;;
14118;SDS011;7138;49.246;9.100;2023-04-24T09:00:30;5.28;;;1.52;;
14118;SDS011;7138;49.246;9.100;2023-04-24T09:02:56;2.60;;;1.33;;
14118;SDS011;7138;49.246;9.100;2023-04-24T09:05:24;5.47;;;1.92;;
14118;SDS011;7138;49.246;9.100;2023-04-24T09:07:53;3.75;;;1.42;;
14118;SDS011;7138;49.246;9.100;2023-04-24T09:10:21;5.78;;;1.30;;
14118;SDS011;7138;49.246;9.100;2023-04-24T09:12:48;3.40;;;1.00;;
14118;SDS011;7138;49.246;9.100;2023-04-24T09:15:16;2.90;;;0.90;;
14118;SDS011;7138;49.246;9.100;2023-04-24T09:17:43;2.92;;;0.90;;
14118;SDS011;7138;49.246;9.100;2023-04-24T09:20:10;2.60;;;1.10;;
14118;SDS011;7138;49.246;9.100;2023-04-24T09:22:37;2.22;;;1.00;;
14118;SDS011;7138;49.246;9.100;2023-04-24T09:25:04;2.75;;;1.13;;
14118;SDS011;7138;49.246;9.100;2023-04-24T09:27:32;2.40;;;1.10;;
14118;SDS011;7138;49.246;9.100;2023-04-24T09:29:59;2.30;;;0.98;;
14118;SDS011;7138;49.246;9.100;2023-04-24T09:32:26;3.22;;;1.25;;
14118;SDS011;7138;49.246;9.100;2023-04-24T09:35:07;3.63;;;1.27;;
14118;SDS011;7138;49.246;9.100;2023-04-24T09:37:38;3.90;;;1.33;;
14118;SDS011;7138;49.246;9.100;2023-04-24T09:40:13;4.88;;;1.90;;
14118;SDS011;7138;49.246;9.100;2023-04-24T09:42:44;3.58;;;1.30;;
14118;SDS011;7138;49.246;9.100;2023-04-24T09:45:11;3.95;;;1.30;;
14118;SDS011;7138;49.246;9.100;2023-04-24T09:47:37;4.13;;;1.35;;
14118;SDS011;7138;49.246;9.100;2023-04-24T09:50:11;3.60;;;1.38;;
14118;SDS011;7138;49.246;9.100;2023-04-24T09:52:41;4.88;;;1.23;;
14118;SDS011;7138;49.246;9.100;2023-04-24T09:55:13;4.03;;;1.25;;
14118;SDS011;7138;49.246;9.100;2023-04-24T09:57:47;4.25;;;1.20;;
14118;SDS011;7138;49.246;9.100;2023-04-24T10:00:18;4.18;;;1.55;;
14118;SDS011;7138;49.246;9.100;2023-04-24T10:05:22;2.63;;;1.20;;
14118;SDS011;7138;49.246;9.100;2023-04-24T10:07:51;3.47;;;1.30;;
14118;SDS011;7138;49.246;9.100;2023-04-24T10:10:22;7.97;;;1.35;;
14118;SDS011;7138;49.246;9.100;2023-04-24T10:12:48;8.13;;;1.67;;
14118;SDS011;7138;49.246;9.100;2023-04-24T10:15:16;6.07;;;1.90;;
14118;SDS011;7138;49.246;9.100;2023-04-24T10:20:17;4.47;;;1.77;;
14118;SDS011;7138;49.246;9.100;2023-04-24T10:22:47;4.18;;;1.90;;
14118;SDS011;7138;49.246;9.100;2023-04-24T10:25:16;3.65;;;1.80;;
14118;SDS011;7138;49.246;9.100;2023-04-24T10:27:45;5.32;;;1.95;;
14118;SDS011;7138;49.246;9.100;2023-04-24T10:30:12;3.63;;;1.77;;
14118;SDS011;7138;49.246;9.100;2023-04-24T10:32:39;3.75;;;2.00;;
14118;SDS011;7138;49.246;9.100;2023-04-24T10:35:05;5.10;;;2.33;;
14118;SDS011;7138;49.246;9.100;2023-04-24T10:37:34;5.53;;;2.22;;
14118;SDS011;7138;49.246;9.100;2023-04-24T10:40:05;6.03;;;2.33;;
14118;SDS011;7138;49.246;9.100;2023-04-24T10:42:33;6.55;;;2.45;;
14118;SDS011;7138;49.246;9.100;2023-04-24T10:45:04;4.03;;;1.92;;
14118;SDS011;7138;49.246;9.100;2023-04-24T10:47:38;4.32;;;2.25;;
14118;SDS011;7138;49.246;9.100;2023-04-24T10:50:07;3.83;;;2.00;;
14118;SDS011;7138;49.246;9.100;2023-04-24T10:52:44;4.22;;;2.17;;
14118;SDS011;7138;49.246;9.100;2023-04-24T10:55:13;4.40;;;1.90;;
14118;SDS011;7138;49.246;9.100;2023-04-24T10:57:40;5.40;;;2.15;;
14118;SDS011;7138;49.246;9.100;2023-04-24T11:00:28;8.88;;;2.40;;
14118;SDS011;7138;49.246;9.100;2023-04-24T11:02:54;4.30;;;2.20;;
14118;SDS011;7138;49.246;9.100;2023-04-24T11:05:22;7.82;;;2.80;;
14118;SDS011;7138;49.246;9.100;2023-04-24T11:08:15;4.55;;;2.78;;
14118;SDS011;7138;49.246;9.100;2023-04-24T11:10:54;4.60;;;2.60;;
14118;SDS011;7138;49.246;9.100;2023-04-24T11:13:26;4.13;;;2.63;;
14118;SDS011;7138;49.246;9.100;2023-04-24T11:16:13;5.43;;;2.45;;
14118;SDS011;7138;49.246;9.100;2023-04-24T11:18:41;4.50;;;2.65;;
14118;SDS011;7138;49.246;9.100;2023-04-24T11:21:15;5.15;;;3.00;;
14118;SDS011;7138;49.246;9.100;2023-04-24T11:23:43;5.03;;;2.70;;
14118;SDS011;7138;49.246;9.100;2023-04-24T11:26:11;5.18;;;3.20;;
14118;SDS011;7138;49.246;9.100;2023-04-24T11:28:48;7.80;;;2.50;;
14118;SDS011;7138;49.246;9.100;2023-04-24T11:34:07;5.97;;;2.75;;
14118;SDS011;7138;49.246;9.100;2023-04-24T11:36:35;6.47;;;3.30;;
14118;SDS011;7138;49.246;9.100;2023-04-24T11:39:02;4.40;;;3.05;;
14118;SDS011;7138;49.246;9.100;2023-04-24T11:41:30;5.90;;;3.00;;
14118;SDS011;7138;49.246;9.100;2023-04-24T11:43:59;6.32;;;2.80;;
14118;SDS011;7138;49.246;9.100;2023-04-24T11:46:28;7.45;;;2.72;;
14118;SDS011;7138;49.246;9.100;2023-04-24T11:48:56;6.60;;;2.80;;
14118;SDS011;7138;49.246;9.100;2023-04-24T11:51:23;4.97;;;2.45;;
14118;SDS011;7138;49.246;9.100;2023-04-24T11:53:50;6.18;;;2.70;;
14118;SDS011;7138;49.246;9.100;2023-04-24T11:56:17;5.45;;;2.80;;
14118;SDS011;7138;49.246;9.100;2023-04-24T11:58:46;7.60;;;3.10;;
14118;SDS011;7138;49.246;9.100;2023-04-24T12:01:12;7.47;;;3.00;;
14118;SDS011;7138;49.246;9.100;2023-04-24T12:03:39;5.13;;;2.65;;
14118;SDS011;7138;49.246;9.100;2023-04-24T12:06:08;3.90;;;2.22;;
14118;SDS011;7138;49.246;9.100;2023-04-24T12:08:36;7.07;;;2.60;;
14118;SDS011;7138;49.246;9.100;2023-04-24T12:11:03;5.32;;;2.35;;
14118;SDS011;7138;49.246;9.100;2023-04-24T12:13:32;4.47;;;2.33;;
14118;SDS011;7138;49.246;9.100;2023-04-24T12:16:00;6.75;;;2.33;;
14118;SDS011;7138;49.246;9.100;2023-04-24T12:18:29;4.63;;;2.22;;
14118;SDS011;7138;49.246;9.100;2023-04-24T12:20:55;4.75;;;2.50;;
14118;SDS011;7138;49.246;9.100;2023-04-24T12:23:42;5.65;;;2.33;;
14118;SDS011;7138;49.246;9.100;2023-04-24T12:28:35;4.25;;;2.55;;
14118;SDS011;7138;49.246;9.100;2023-04-24T12:31:04;5.35;;;2.60;;
14118;SDS011;7138;49.246;9.100;2023-04-24T12:33:32;4.60;;;2.47;;
14118;SDS011;7138;49.246;9.100;2023-04-24T12:36:00;4.70;;;2.97;;
14118;SDS011;7138;49.246;9.100;2023-04-24T12:38:26;7.57;;;2.70;;
14118;SDS011;7138;49.246;9.100;2023-04-24T12:41:01;5.82;;;3.00;;
14118;SDS011;7138;49.246;9.100;2023-04-24T12:43:29;8.43;;;2.80;;
14118;SDS011;7138;49.246;9.100;2023-04-24T12:45:55;5.15;;;2.63;;
14118;SDS011;7138;49.246;9.100;2023-04-24T12:48:23;3.88;;;2.38;;
14118;SDS011;7138;49.246;9.100;2023-04-24T12:50:49;4.65;;;2.60;;
14118;SDS011;7138;49.246;9.100;2023-04-24T12:53:15;4.97;;;2.40;;
14118;SDS011;7138;49.246;9.100;2023-04-24T12:55:41;4.32;;;2.60;;
14118;SDS011;7138;49.246;9.100;2023-04-24T12:58:07;7.32;;;3.00;;
14118;SDS011;7138;49.246;9.100;2023-04-24T13:00:33;5.15;;;2.30;;
14118;SDS011;7138;49.246;9.100;2023-04-24T13:02:59;5.97;;;2.65;;
14118;SDS011;7138;49.246;9.100;2023-04-24T13:05:27;5.47;;;2.80;;
14118;SDS011;7138;49.246;9.100;2023-04-24T13:07:53;7.28;;;2.40;;
14118;SDS011;7138;49.246;9.100;2023-04-24T13:10:18;5.00;;;2.92;;
14118;SDS011;7138;49.246;9.100;2023-04-24T13:12:45;5.03;;;2.45;;
14118;SDS011;7138;49.246;9.100;2023-04-24T13:15:11;5.95;;;2.58;;
14118;SDS011;7138;49.246;9.100;2023-04-24T13:17:37;6.32;;;2.72;;
14118;SDS011;7138;49.246;9.100;2023-04-24T13:20:03;4.93;;;2.50;;
14118;SDS011;7138;49.246;9.100;2023-04-24T13:22:32;4.80;;;2.47;;
14118;SDS011;7138;49.246;9.100;2023-04-24T13:24:58;7.28;;;3.10;;
14118;SDS011;7138;49.246;9.100;2023-04-24T13:27:24;5.45;;;2.20;;
14118;SDS011;7138;49.246;9.100;2023-04-24T13:29:50;4.75;;;2.50;;
14118;SDS011;7138;49.246;9.100;2023-04-24T13:32:16;5.03;;;2.58;;
14118;SDS011;7138;49.246;9.100;2023-04-24T13:34:42;6.18;;;2.55;;
14118;SDS011;7138;49.246;9.100;2023-04-24T13:37:08;5.72;;;2.45;;
14118;SDS011;7138;49.246;9.100;2023-04-24T13:39:36;4.90;;;2.30;;
14118;SDS011;7138;49.246;9.100;2023-04-24T13:42:02;11.45;;;2.78;;
14118;SDS011;7138;49.246;9.100;2023-04-24T13:44:28;4.43;;;2.25;;
14118;SDS011;7138;49.246;9.100;2023-04-24T13:46:54;6.03;;;2.60;;
14118;SDS011;7138;49.246;9.100;2023-04-24T13:49:22;4.85;;;2.17;;
14118;SDS011;7138;49.246;9.100;2023-04-24T13:51:52;3.65;;;2.03;;
14118;SDS011;7138;49.246;9.100;2023-04-24T13:54:20;4.35;;;2.50;;
14118;SDS011;7138;49.246;9.100;2023-04-24T13:56:48;3.90;;;2.40;;
14118;SDS011;7138;49.246;9.100;2023-04-24T13:59:14;7.38;;;2.20;;
14118;SDS011;7138;49.246;9.100;2023-04-24T14:01:40;6.65;;;2.40;;
14118;SDS011;7138;49.246;9.100;2023-04-24T14:04:06;5.28;;;2.35;;
14118;SDS011;7138;49.246;9.100;2023-04-24T14:06:32;4.82;;;2.28;;
14118;SDS011;7138;49.246;9.100;2023-04-24T14:08:57;4.15;;;2.30;;
14118;SDS011;7138;49.246;9.100;2023-04-24T14:11:23;5.63;;;2.28;;
14118;SDS011;7138;49.246;9.100;2023-04-24T14:13:52;6.28;;;2.13;;
14118;SDS011;7138;49.246;9.100;2023-04-24T14:16:21;4.50;;;2.20;;
14118;SDS011;7138;49.246;9.100;2023-04-24T14:18:47;5.20;;;2.20;;
14118;SDS011;7138;49.246;9.100;2023-04-24T14:21:13;3.63;;;2.00;;
14118;SDS011;7138;49.246;9.100;2023-04-24T14:23:39;3.97;;;1.92;;
14118;SDS011;7138;49.246;9.100;2023-04-24T14:26:04;4.22;;;2.20;;
14118;SDS011;7138;49.246;9.100;2023-04-24T14:28:30;4.90;;;2.60;;
14118;SDS011;7138;49.246;9.100;2023-04-24T14:30:58;5.43;;;3.00;;
14118;SDS011;7138;49.246;9.100;2023-04-24T14:33:24;6.15;;;3.08;;
14118;SDS011;7138;49.246;9.100;2023-04-24T14:35:50;4.95;;;3.03;;
14118;SDS011;7138;49.246;9.100;2023-04-24T14:38:16;4.68;;;2.90;;
14118;SDS011;7138;49.246;9.100;2023-04-24T14:40:42;5.18;;;2.88;;
14118;SDS011;7138;49.246;9.100;2023-04-24T14:43:08;4.38;;;2.47;;
14118;SDS011;7138;49.246;9.100;2023-04-24T14:45:34;6.18;;;2.67;;
14118;SDS011;7138;49.246;9.100;2023-04-24T14:48:03;4.43;;;2.33;;
14118;SDS011;7138;49.246;9.100;2023-04-24T14:50:29;6.03;;;3.10;;
14118;SDS011;7138;49.246;9.100;2023-04-24T14:52:55;4.40;;;2.63;;
14118;SDS011;7138;49.246;9.100;2023-04-24T14:55:22;6.30;;;2.60;;
14118;SDS011;7138;49.246;9.100;2023-04-24T14:57:48;8.82;;;2.72;;
14118;SDS011;7138;49.246;9.100;2023-04-24T15:00:14;4.57;;;2.15;;
14118;SDS011;7138;49.246;9.100;2023-04-24T15:02:42;6.07;;;2.22;;
14118;SDS011;7138;49.246;9.100;2023-04-24T15:05:10;5.65;;;2.72;;
14118;SDS011;7138;49.246;9.100;2023-04-24T15:07:36;4.93;;;2.50;;
14118;SDS011;7138;49.246;9.100;2023-04-24T15:10:03;5.05;;;2.40;;